createdAt,value
2022-08-08T00:00:54.451Z,101829.13
2022-08-08T00:03:19.854Z,101828.34
2022-08-08T00:06:28.606Z,101829.47
2022-08-08T00:09:16.864Z,101831.38
2022-08-08T00:12:09.726Z,101835.00
2022-08-08T00:14:59.217Z,101826.09
2022-08-08T00:18:03.320Z,101827.13
2022-08-08T00:20:51.304Z,101824.50
2022-08-08T00:23:47.615Z,101824.63
2022-08-08T00:26:46.504Z,101821.16
2022-08-08T00:29:45.616Z,101823.88
2022-08-08T00:32:36.163Z,101820.38
2022-08-08T00:35:34.687Z,101822.31
2022-08-08T00:38:44.364Z,101817.00
2022-08-08T00:42:07.758Z,101819.75
2022-08-08T00:45:27.057Z,101816.38
2022-08-08T00:48:58.972Z,101819.19
2022-08-08T00:52:19.878Z,101824.72
2022-08-08T00:55:16.726Z,101810.47
2022-08-08T00:58:54.791Z,101814.16
2022-08-08T01:01:42.502Z,101812.47
2022-08-08T01:04:53.083Z,101811.69
2022-08-08T01:07:54.901Z,101812.69
2022-08-08T01:10:52.305Z,101821.78
2022-08-08T01:14:53.297Z,101824.66
2022-08-08T01:17:19.282Z,101825.56
2022-08-08T01:20:26.267Z,101834.63
2022-08-08T01:24:06.404Z,101833.00
2022-08-08T01:26:39.443Z,101826.81
2022-08-08T01:29:58.617Z,101827.78
2022-08-08T01:33:16.397Z,101827.03
2022-08-08T01:36:28.426Z,101825.28
2022-08-08T01:39:23.291Z,101830.75
2022-08-08T01:42:21.199Z,101831.72
2022-08-08T01:45:56.304Z,101837.22
2022-08-08T01:49:11.046Z,101833.75
2022-08-08T01:52:33.611Z,101841.88
2022-08-08T01:55:19.458Z,101832.25
2022-08-08T01:58:38.247Z,101828.66
2022-08-08T02:02:00.061Z,101828.75
2022-08-08T02:04:35.550Z,101827.00
2022-08-08T02:07:22.437Z,101827.06
2022-08-08T02:10:29.516Z,101827.16
2022-08-08T02:13:54.034Z,101828.13
2022-08-08T02:17:10.559Z,101831.78
2022-08-08T02:20:15.955Z,101835.44
2022-08-08T02:23:31.595Z,101833.81
2022-08-08T02:26:16.076Z,101845.41
2022-08-08T02:29:41.624Z,101841.97
2022-08-08T02:33:12.592Z,101845.66
2022-08-08T02:36:28.576Z,101846.63
2022-08-08T02:39:40.382Z,101845.75
2022-08-08T02:44:32.906Z,101850.38
2022-08-08T02:46:34.284Z,101850.44
2022-08-08T02:49:51.056Z,101843.41
2022-08-08T02:52:59.149Z,101845.25
2022-08-08T02:56:34.440Z,101839.00
2022-08-08T02:59:57.973Z,101836.41
2022-08-08T03:05:01.043Z,101849.94
2022-08-08T03:06:45.577Z,101838.34
2022-08-08T03:10:31.620Z,101846.47
2022-08-08T03:15:58.349Z,101844.75
2022-08-08T03:17:51.996Z,101846.59
2022-08-08T03:20:47.082Z,101850.22
2022-08-08T03:23:22.299Z,101845.78
2022-08-08T03:25:51.961Z,101853.84
2022-08-08T03:28:33.166Z,101852.09
2022-08-08T03:31:07.914Z,101850.31
2022-08-08T03:33:58.928Z,101854.88
2022-08-08T03:36:30.393Z,101849.50
2022-08-08T03:39:14.438Z,101852.25
2022-08-08T03:42:27.197Z,101851.41
2022-08-08T03:44:35.085Z,101845.19
2022-08-08T03:47:14.177Z,101845.25
2022-08-08T03:49:57.160Z,101858.66
2022-08-08T03:52:26.829Z,101856.03
2022-08-08T03:55:10.538Z,101863.19
2022-08-08T03:58:30.484Z,101870.41
2022-08-08T04:01:01.753Z,101863.31
2022-08-08T04:03:58.517Z,101875.84
2022-08-08T04:06:22.634Z,101879.56
2022-08-08T04:08:50.086Z,101881.34
2022-08-08T04:11:23.329Z,101883.13
2022-08-08T04:14:03.474Z,101880.47
2022-08-08T04:16:40.419Z,101877.78
2022-08-08T04:19:24.118Z,101882.28
2022-08-08T04:21:54.195Z,101876.94
2022-08-08T04:24:28.576Z,101886.72
2022-08-08T04:26:58.790Z,101884.03
2022-08-08T04:29:36.980Z,101890.28
2022-08-08T04:32:06.921Z,101883.16
2022-08-08T04:34:42.836Z,101891.19
2022-08-08T04:37:16.486Z,101886.72
2022-08-08T04:40:04.261Z,101891.19
2022-08-08T04:42:33.678Z,101894.75
2022-08-08T04:45:01.130Z,101890.28
2022-08-08T04:47:28.044Z,101898.31
2022-08-08T04:50:00.918Z,101892.03
2022-08-08T04:52:33.785Z,101895.59
2022-08-08T04:55:04.202Z,101892.00
2022-08-08T04:57:34.442Z,101895.53
2022-08-08T05:00:02.267Z,101895.50
2022-08-08T05:02:30.892Z,101898.09
2022-08-08T05:04:59.811Z,101898.84
2022-08-08T05:07:38.017Z,101902.28
2022-08-08T05:10:12.307Z,101903.84
2022-08-08T05:12:42.890Z,101892.63
2022-08-08T05:16:48.401Z,101897.19
2022-08-08T05:18:14.118Z,101897.16
2022-08-08T05:20:48.664Z,101896.16
2022-08-08T05:23:17.473Z,101889.53
2022-08-08T05:25:44.342Z,101889.91
2022-08-08T05:28:15.003Z,101893.59
2022-08-08T05:30:47.433Z,101893.66
2022-08-08T05:33:16.941Z,101890.06
2022-08-08T05:35:46.447Z,101884.88
2022-08-08T05:38:31.424Z,101887.72
2022-08-08T05:41:03.698Z,101896.78
2022-08-08T05:43:39.079Z,101898.72
2022-08-08T05:46:09.746Z,101888.03
2022-08-08T05:48:38.648Z,101881.72
2022-08-08T05:51:15.003Z,101893.03
2022-08-08T05:54:25.356Z,101890.50
2022-08-08T05:56:42.323Z,101898.28
2022-08-08T05:59:57.670Z,101892.09
2022-08-08T06:02:43.220Z,101896.50
2022-08-08T06:05:16.362Z,101896.44
2022-08-08T06:08:10.223Z,101902.47
2022-08-08T06:10:50.582Z,101901.22
2022-08-08T06:13:22.800Z,101899.75
2022-08-08T06:15:53.637Z,101902.66
2022-08-08T06:18:25.651Z,101907.50
2022-08-08T06:20:57.717Z,101907.38
2022-08-08T06:23:49.090Z,101900.84
2022-08-08T06:26:38.490Z,101902.63
2022-08-08T06:29:25.952Z,101910.25
2022-08-08T06:32:10.612Z,101899.72
2022-08-08T06:34:39.980Z,101909.09
2022-08-08T06:37:37.065Z,101914.78
2022-08-08T06:40:12.794Z,101921.31
2022-08-08T06:43:09.448Z,101922.75
2022-08-08T06:45:40.252Z,101921.25
2022-08-08T06:48:08.626Z,101928.78
2022-08-08T06:50:38.489Z,101929.78
2022-08-08T06:53:10.087Z,101925.06
2022-08-08T06:55:46.898Z,101926.34
2022-08-08T06:58:14.370Z,101932.63
2022-08-08T07:00:46.423Z,101929.56
2022-08-08T07:03:52.660Z,101934.94
2022-08-08T07:06:26.812Z,101944.88
2022-08-08T07:09:01.141Z,101938.41
2022-08-08T07:11:46.213Z,101942.50
2022-08-08T07:14:27.364Z,101950.69
2022-08-08T07:17:09.104Z,101943.50
2022-08-08T07:20:05.786Z,101946.06
2022-08-08T07:23:11.895Z,101934.59
2022-08-08T07:25:54.529Z,101945.38
2022-08-08T07:28:31.643Z,101938.06
2022-08-08T07:30:59.705Z,101934.72
2022-08-08T07:33:27.338Z,101944.72
2022-08-08T07:36:08.256Z,101945.25
2022-08-08T07:38:37.866Z,101942.88
2022-08-08T07:41:07.246Z,101949.56
2022-08-08T07:43:51.141Z,101949.56
2022-08-08T07:46:29.015Z,101950.53
2022-08-08T07:48:57.934Z,101948.19
2022-08-08T07:51:45.082Z,101948.50
2022-08-08T07:54:37.871Z,101959.88
2022-08-08T07:57:22.542Z,101959.66
2022-08-08T07:59:58.274Z,101962.06
2022-08-08T08:02:41.569Z,101969.00
2022-08-08T08:05:33.145Z,101977.31
2022-08-08T08:08:18.762Z,101978.00
2022-08-08T08:10:57.063Z,101977.03
2022-08-08T08:13:42.737Z,101971.84
2022-08-08T08:16:33.682Z,101976.78
2022-08-08T08:19:12.719Z,101969.13
2022-08-08T08:21:57.090Z,101971.13
2022-08-08T08:24:30.369Z,101965.25
2022-08-08T08:27:02.991Z,101968.75
2022-08-08T08:29:30.903Z,101962.66
2022-08-08T08:31:59.097Z,101964.63
2022-08-08T08:34:32.283Z,101963.22
2022-08-08T08:37:07.634Z,101974.69
2022-08-08T08:40:00.592Z,101981.00
2022-08-08T08:42:32.100Z,101977.81
2022-08-08T08:45:20.739Z,101971.31
2022-08-08T08:47:58.575Z,101966.09
2022-08-08T08:50:33.607Z,101962.94
2022-08-08T08:53:28.349Z,101967.84
2022-08-08T08:56:02.128Z,101968.91
2022-08-08T08:58:46.506Z,101972.59
2022-08-08T09:01:19.506Z,101970.63
2022-08-08T09:03:50.896Z,101969.44
2022-08-08T09:06:38.072Z,101967.97
2022-08-08T09:09:26.378Z,101964.56
2022-08-08T09:12:08.291Z,101969.22
2022-08-08T09:14:35.718Z,101963.06
2022-08-08T09:17:17.848Z,101960.41
2022-08-08T09:22:01.644Z,101958.72
2022-08-08T09:22:36.699Z,101963.19
2022-08-08T09:25:07.523Z,101966.72
2022-08-08T09:27:56.844Z,101958.41
2022-08-08T09:30:27.866Z,101962.91
2022-08-08T09:33:12.640Z,101964.06
2022-08-08T09:35:51.221Z,101964.31
2022-08-08T09:38:54.136Z,101967.34
2022-08-08T09:41:55.087Z,101961.75
2022-08-08T09:44:36.402Z,101961.59
2022-08-08T09:47:26.671Z,101948.63
2022-08-08T09:50:01.585Z,101957.47
2022-08-08T09:52:57.516Z,101956.28
2022-08-08T09:55:51.783Z,101952.38
2022-08-08T09:58:25.861Z,101952.06
2022-08-08T10:00:59.121Z,101954.78
2022-08-08T10:03:31.382Z,101954.78
2022-08-08T10:05:59.364Z,101951.13
2022-08-08T10:08:26.383Z,101953.59
2022-08-08T10:10:59.585Z,101954.16
2022-08-08T10:13:35.871Z,101944.00
2022-08-08T10:16:05.771Z,101936.63
2022-08-08T10:18:35.608Z,101933.84
2022-08-08T10:21:25.205Z,101938.31
2022-08-08T10:24:12.264Z,101938.94
2022-08-08T10:27:03.468Z,101938.78
2022-08-08T10:29:59.046Z,101938.63
2022-08-08T10:32:48.661Z,101930.88
2022-08-08T10:36:19.974Z,101935.25
2022-08-08T10:38:15.217Z,101931.41
2022-08-08T10:40:45.772Z,101930.22
2022-08-08T10:43:14.368Z,101926.38
2022-08-08T10:45:56.138Z,101932.38
2022-08-08T10:48:37.364Z,101931.34
2022-08-08T10:51:13.863Z,101924.88
2022-08-08T10:53:57.159Z,101928.38
2022-08-08T10:56:34.456Z,101926.47
2022-08-08T10:59:07.923Z,101927.13
2022-08-08T11:01:39.296Z,101925.09
2022-08-08T11:04:10.370Z,101920.28
2022-08-08T11:06:41.443Z,101924.50
2022-08-08T11:09:19.198Z,101925.13
2022-08-08T11:12:05.193Z,101930.75
2022-08-08T11:14:35.381Z,101929.69
2022-08-08T11:17:04.402Z,101924.88
2022-08-08T11:19:34.786Z,101928.16
2022-08-08T11:22:04.227Z,101921.75
2022-08-08T11:24:35.857Z,101922.59
2022-08-08T11:27:10.762Z,101925.25
2022-08-08T11:30:04.274Z,101920.75
2022-08-08T11:32:47.514Z,101919.53
2022-08-08T11:35:33.588Z,101919.34
2022-08-08T11:38:39.246Z,101928.25
2022-08-08T11:40:52.615Z,101913.66
2022-08-08T11:43:24.361Z,101916.06
2022-08-08T11:48:41.433Z,101912.81
2022-08-08T11:51:30.794Z,101919.22
2022-08-08T11:54:02.194Z,101917.47
2022-08-08T11:56:42.015Z,101911.94
2022-08-08T11:59:11.653Z,101910.88
2022-08-08T12:01:39.089Z,101907.81
2022-08-08T12:04:08.205Z,101905.50
2022-08-08T12:06:35.152Z,101907.81
2022-08-08T12:09:09.757Z,101896.72
2022-08-08T12:11:45.867Z,101901.09
2022-08-08T12:14:23.629Z,101902.66
2022-08-08T12:16:53.176Z,101906.19
2022-08-08T12:19:31.478Z,101895.97
2022-08-08T12:22:13.891Z,101893.91
2022-08-08T12:24:54.163Z,101895.31
2022-08-08T12:27:27.024Z,101897.75
2022-08-08T12:30:02.714Z,101894.66
2022-08-08T12:32:46.489Z,101893.13
2022-08-08T12:35:22.882Z,101887.88
2022-08-08T12:38:05.966Z,101893.38
2022-08-08T12:40:59.161Z,101901.56
2022-08-08T12:43:46.434Z,101882.75
2022-08-08T12:46:25.373Z,101893.66
2022-08-08T12:51:58.504Z,101892.22
2022-08-08T12:54:33.250Z,101899.75
2022-08-08T12:57:24.510Z,101886.06
2022-08-08T13:00:03.814Z,101885.66
2022-08-08T13:02:35.805Z,101881.56
2022-08-08T13:05:25.487Z,101883.41
2022-08-08T13:08:03.442Z,101879.25
2022-08-08T13:10:36.647Z,101886.53
2022-08-08T13:13:34.686Z,101882.22
2022-08-08T13:16:25.964Z,101877.88
2022-08-08T13:19:05.500Z,101882.53
2022-08-08T13:21:53.624Z,101876.09
2022-08-08T13:24:42.423Z,101868.13
2022-08-08T13:27:18.075Z,101869.34
2022-08-08T13:30:06.388Z,101876.22
2022-08-08T13:32:39.660Z,101880.41
2022-08-08T13:35:11.665Z,101878.31
2022-08-08T13:38:06.119Z,101877.41
2022-08-08T13:40:34.981Z,101860.13
2022-08-08T13:43:04.017Z,101873.25
2022-08-08T13:45:31.328Z,101870.66
2022-08-08T13:47:59.557Z,101871.06
2022-08-08T13:50:39.278Z,101871.47
2022-08-08T13:53:25.235Z,101866.84
2022-08-08T13:56:12.343Z,101872.53
2022-08-08T13:58:57.904Z,101868.81
2022-08-08T14:01:41.935Z,101874.28
2022-08-08T14:04:24.518Z,101877.50
2022-08-08T14:07:01.634Z,101870.91
2022-08-08T14:10:04.637Z,101878.91
2022-08-08T14:12:30.029Z,101874.72
2022-08-08T14:14:57.291Z,101882.91
2022-08-08T14:17:57.817Z,101878.44
2022-08-08T14:20:15.748Z,101877.25
2022-08-08T14:23:21.060Z,101880.88
2022-08-08T14:26:10.435Z,101877.25
2022-08-08T14:28:39.764Z,101881.94
2022-08-08T14:31:11.349Z,101870.34
2022-08-08T14:33:56.646Z,101877.88
2022-08-08T14:36:38.755Z,101877.28
2022-08-08T14:39:11.587Z,101878.47
2022-08-08T14:41:45.174Z,101876.13
2022-08-08T14:44:33.696Z,101872.03
2022-08-08T14:47:02.594Z,101871.34
2022-08-08T14:50:06.489Z,101874.06
2022-08-08T14:53:05.035Z,101880.84
2022-08-08T14:55:41.269Z,101873.94
2022-08-08T14:58:12.061Z,101867.91
2022-08-08T15:00:44.408Z,101871.41
2022-08-08T15:03:14.895Z,101862.47
2022-08-08T15:05:53.783Z,101868.31
2022-08-08T15:08:34.726Z,101859.50
2022-08-08T15:11:09.195Z,101869.69
2022-08-08T15:13:41.189Z,101857.66
2022-08-08T15:16:24.314Z,101855.63
2022-08-08T15:18:51.768Z,101864.41
2022-08-08T15:21:21.104Z,101859.31
2022-08-08T15:23:52.643Z,101865.28
2022-08-08T15:26:21.218Z,101861.31
2022-08-08T15:28:54.212Z,101868.31
2022-08-08T15:31:55.955Z,101855.41
2022-08-08T15:34:28.990Z,101857.88
2022-08-08T15:36:58.463Z,101868.72
2022-08-08T15:39:27.471Z,101873.41
2022-08-08T15:41:55.350Z,101869.91
2022-08-08T15:44:22.249Z,101871.81
2022-08-08T15:46:50.738Z,101871.06
2022-08-08T15:49:20.567Z,101867.59
2022-08-08T15:51:50.145Z,101865.16
2022-08-08T15:54:18.866Z,101866.25
2022-08-08T15:57:07.549Z,101865.38
2022-08-08T16:00:05.805Z,101869.06
2022-08-08T16:02:21.881Z,101862.06
2022-08-08T16:04:58.980Z,101867.53
2022-08-08T16:07:52.117Z,101860.50
2022-08-08T16:13:04.684Z,101866.16
2022-08-08T16:13:28.934Z,101868.31
2022-08-08T16:15:58.971Z,101870.66
2022-08-08T16:18:35.819Z,101871.91
2022-08-08T16:21:03.614Z,101863.78
2022-08-08T16:23:32.979Z,101872.38
2022-08-08T16:26:12.758Z,101877.22
2022-08-08T16:28:44.320Z,101872.91
2022-08-08T16:31:12.889Z,101869.38
2022-08-08T16:33:40.557Z,101866.78
2022-08-08T16:36:15.816Z,101866.84
2022-08-08T16:38:53.985Z,101865.09
2022-08-08T16:41:23.738Z,101868.78
2022-08-08T16:43:52.280Z,101867.91
2022-08-08T16:46:37.543Z,101864.31
2022-08-08T16:49:08.853Z,101863.53
2022-08-08T16:55:00.526Z,101871.72
2022-08-08T16:55:18.392Z,101863.88
2022-08-08T16:57:22.637Z,101871.50
2022-08-08T16:59:52.177Z,101854.53
2022-08-08T17:02:37.935Z,101863.75
2022-08-08T17:05:08.408Z,101868.72
2022-08-08T17:07:37.535Z,101867.84
2022-08-08T17:10:08.634Z,101870.66
2022-08-08T17:12:36.485Z,101874.34
2022-08-08T17:15:17.836Z,101881.75
2022-08-08T17:18:02.658Z,101882.09
2022-08-08T17:20:39.730Z,101884.31
2022-08-08T17:23:17.825Z,101882.81
2022-08-08T17:25:57.187Z,101892.16
2022-08-08T17:28:35.140Z,101882.47
2022-08-08T17:31:44.860Z,101891.59
2022-08-08T17:34:35.793Z,101905.50
2022-08-08T17:36:55.146Z,101910.44
2022-08-08T17:40:04.063Z,101918.00
2022-08-08T17:42:16.526Z,101913.97
2022-08-08T17:44:45.799Z,101918.72
2022-08-08T17:47:24.331Z,101914.31
2022-08-08T17:50:02.748Z,101917.34
2022-08-08T17:52:34.171Z,101923.91
2022-08-08T17:55:05.426Z,101926.03
2022-08-08T17:57:36.445Z,101915.47
2022-08-08T18:00:13.248Z,101922.06
2022-08-08T18:02:58.169Z,101920.56
2022-08-08T18:05:48.999Z,101921.75
2022-08-08T18:08:37.828Z,101925.81
2022-08-08T18:11:17.003Z,101934.22
2022-08-08T18:13:47.917Z,101931.81
2022-08-08T18:16:16.981Z,101933.84
2022-08-08T18:18:54.072Z,101934.00
2022-08-08T18:21:58.833Z,101926.94
2022-08-08T18:24:18.900Z,101933.56
2022-08-08T18:26:54.788Z,101930.22
2022-08-08T18:29:36.424Z,101942.16
2022-08-08T18:32:08.392Z,101949.69
2022-08-08T18:34:37.887Z,101940.88
2022-08-08T18:37:06.701Z,101946.50
2022-08-08T18:39:41.172Z,101952.25
2022-08-08T18:42:14.241Z,101955.38
2022-08-08T18:44:53.031Z,101958.31
2022-08-08T18:47:24.478Z,101960.41
2022-08-08T18:49:58.430Z,101961.56
2022-08-08T18:52:28.374Z,101966.34
2022-08-08T18:54:59.568Z,101971.13
2022-08-08T18:57:42.187Z,101971.34
2022-08-08T19:00:16.397Z,101976.13
2022-08-08T19:02:54.689Z,101977.34
2022-08-08T19:05:45.453Z,101974.97
2022-08-08T19:08:28.474Z,101984.25
2022-08-08T19:10:59.131Z,101990.88
2022-08-08T19:13:47.268Z,101992.94
2022-08-08T19:16:19.404Z,101995.00
2022-08-08T19:19:00.265Z,102001.53
2022-08-08T19:21:33.449Z,102004.56
2022-08-08T19:24:05.803Z,102012.13
2022-08-08T19:26:37.796Z,102017.94
2022-08-08T19:29:06.053Z,102022.69
2022-08-08T19:31:35.245Z,102026.63
2022-08-08T19:34:29.902Z,102025.94
2022-08-08T19:36:58.420Z,102029.13
2022-08-08T19:39:30.820Z,102029.38
2022-08-08T19:42:06.809Z,102038.63
2022-08-08T19:44:45.508Z,102036.13
2022-08-08T19:47:13.957Z,102031.78
2022-08-08T19:49:43.635Z,102038.47
2022-08-08T19:52:35.011Z,102038.66
2022-08-08T19:55:11.253Z,102045.22
2022-08-08T19:57:41.044Z,102044.59
2022-08-08T20:00:30.818Z,102052.13
2022-08-08T20:03:00.495Z,102044.25
2022-08-08T20:06:14.118Z,102047.16
2022-08-08T20:08:29.289Z,102053.72
2022-08-08T20:11:00.236Z,102058.47
2022-08-08T20:14:32.177Z,102061.28
2022-08-08T20:16:15.546Z,102070.50
2022-08-08T20:18:52.788Z,102060.69
2022-08-08T20:21:24.963Z,102069.06
2022-08-08T20:23:58.087Z,102074.69
2022-08-08T20:26:27.598Z,102081.19
2022-08-08T20:28:57.376Z,102080.44
2022-08-08T20:31:24.238Z,102082.44
2022-08-08T20:34:30.246Z,102077.28
2022-08-08T20:36:58.711Z,102084.72
2022-08-08T20:39:33.635Z,102084.81
2022-08-08T20:42:09.120Z,102081.41
2022-08-08T20:44:37.563Z,102086.03
2022-08-08T20:47:05.328Z,102081.63
2022-08-08T20:49:46.641Z,102088.94
2022-08-08T20:52:15.498Z,102093.69
2022-08-08T20:54:44.208Z,102091.06
2022-08-08T20:57:18.677Z,102092.13
2022-08-08T20:59:46.736Z,102086.84
2022-08-08T21:02:16.419Z,102094.25
2022-08-08T21:04:52.652Z,102093.50
2022-08-08T21:07:47.082Z,102097.25
2022-08-08T21:10:12.780Z,102091.13
2022-08-08T21:12:44.648Z,102092.19
2022-08-08T21:15:16.555Z,102094.06
2022-08-08T21:18:00.150Z,102092.34
2022-08-08T21:20:34.155Z,102088.84
2022-08-08T21:23:02.984Z,102095.22
2022-08-08T21:25:32.829Z,102090.75
2022-08-08T21:28:14.729Z,102092.66
2022-08-08T21:30:42.513Z,102084.69
2022-08-08T21:33:12.435Z,102086.63
2022-08-08T21:36:18.097Z,102096.63
2022-08-08T21:38:27.195Z,102094.06
2022-08-08T21:40:55.522Z,102096.81
2022-08-08T21:43:33.738Z,102095.13
2022-08-08T21:48:06.530Z,102092.56
2022-08-08T21:48:59.155Z,102090.97
2022-08-08T21:54:17.592Z,102086.53
2022-08-08T21:54:51.967Z,102082.97
2022-08-08T21:57:07.070Z,102099.31
2022-08-08T22:00:02.096Z,102090.38
2022-08-08T22:02:23.419Z,102095.91
2022-08-08T22:04:58.626Z,102101.41
2022-08-08T22:07:34.567Z,102103.28
2022-08-08T22:10:18.215Z,102098.88
2022-08-08T22:13:17.005Z,102108.97
2022-08-08T22:15:43.938Z,102108.22
2022-08-08T22:18:28.215Z,102106.56
2022-08-08T22:20:59.394Z,102105.78
2022-08-08T22:23:32.636Z,102109.47
2022-08-08T22:26:27.613Z,102111.41
2022-08-08T22:29:14.893Z,102108.84
2022-08-08T22:31:36.039Z,102105.34
2022-08-08T22:34:13.808Z,102107.22
2022-08-08T22:36:42.711Z,102108.22
2022-08-08T22:39:18.856Z,102112.78
2022-08-08T22:41:46.062Z,102113.78
2022-08-08T22:44:13.019Z,102117.50
2022-08-08T22:46:40.115Z,102113.94
2022-08-08T22:49:09.241Z,102126.69
2022-08-08T22:51:42.462Z,102120.50
2022-08-08T22:54:33.194Z,102123.28
2022-08-08T22:57:01.302Z,102119.81
2022-08-08T22:59:35.755Z,102125.31
2022-08-08T23:02:12.762Z,102128.13
2022-08-08T23:04:55.783Z,102133.63
2022-08-08T23:07:51.643Z,102122.06
2022-08-08T23:10:12.314Z,102123.03
2022-08-08T23:12:47.022Z,102117.97
2022-08-08T23:16:38.674Z,102127.84
2022-08-08T23:18:02.049Z,102132.44
2022-08-08T23:20:31.201Z,102131.53
2022-08-08T23:22:58.687Z,102137.06
2022-08-08T23:25:26.457Z,102133.53
2022-08-08T23:27:54.321Z,102135.38
2022-08-08T23:30:22.391Z,102135.50
2022-08-08T23:32:49.882Z,102138.31
2022-08-08T23:35:18.865Z,102149.19
2022-08-08T23:38:02.244Z,102141.19
2022-08-08T23:40:30.578Z,102153.97
2022-08-08T23:42:57.603Z,102152.25
2022-08-08T23:49:01.800Z,102154.38
2022-08-08T23:49:04.912Z,102148.81
2022-08-08T23:50:58.526Z,102153.59
2022-08-08T23:54:04.819Z,102156.47
2022-08-08T23:56:12.857Z,102153.97
2022-08-08T23:58:39.691Z,102144.22
